Time;durP1;ratioP1;P1;durP2;ratioP2;P2;SDS_P1;SDS_P2;PMS_P1;PMS_P2;Temp;Humidity;BMP_temperature;BMP_pressure;BME280_temperature;BME280_humidity;BME280_pressure;Samples;Min_cycle;Max_cycle;Signal;HPM_P1;HPM_P2
2023/12/29 00:02:02;;;;;;;;;;;;;;;19.91;33.89;95815.25;10458885;28;2219;-61
2023/12/29 00:07:02;;;;;;;;;;;;;;;19.91;33.73;95809.19;10460399;28;2019;-61
2023/12/29 00:12:03;;;;;;;;;;;;;;;19.88;33.69;95793.97;10461232;28;5035;-62
2023/12/29 00:17:03;;;;;;;;;;;;;;;19.87;33.68;95797.63;10460402;28;2075;-61
2023/12/29 00:22:03;;;;;;;;;;;;;;;19.85;33.97;95791.84;10463477;28;1963;-61
2023/12/29 00:27:04;;;;;;;;;;;;;;;19.84;33.63;95782.41;10464722;28;2205;-62
2023/12/29 00:32:04;;;;;;;;;;;;;;;19.81;33.80;95778.44;10460888;28;1983;-61
2023/12/29 00:37:05;;;;;;;;;;;;;;;19.79;33.91;95779.78;10441868;28;1998;-62
2023/12/29 00:42:08;;;;;;;;;;;;;;;19.78;34.02;95767.69;10448235;28;2025;-61
2023/12/29 00:47:08;;;;;;;;;;;;;;;19.75;33.77;95762.94;10449417;28;2092;-61
2023/12/29 00:52:09;;;;;;;;;;;;;;;19.74;33.95;95756.88;10459422;28;2006;-62
2023/12/29 00:57:09;;;;;;;;;;;;;;;19.72;33.79;95760.88;10463563;28;2577;-61
2023/12/29 01:02:09;;;;;;;;;;;;;;;19.73;33.77;95759.78;10444024;28;1906;-61
2023/12/29 01:07:09;;;;;;;;;;;;;;;19.70;34.09;95755.09;10457639;28;1974;-62
2023/12/29 01:12:10;;;;;;;;;;;;;;;19.70;33.84;95755.09;10462377;28;5055;-60
2023/12/29 01:17:10;;;;;;;;;;;;;;;19.67;33.94;95761.66;10457624;28;1914;-61
2023/12/29 01:22:10;;;;;;;;;;;;;;;19.66;33.90;95775.84;10463055;28;1975;-62
2023/12/29 01:27:10;;;;;;;;;;;;;;;19.65;33.97;95778.75;10452432;28;2013;-62
2023/12/29 01:32:13;;;;;;;;;;;;;;;19.63;33.87;95778.22;10457174;28;1946;-61
2023/12/29 01:37:13;;;;;;;;;;;;;;;19.61;33.87;95775.09;10462887;28;2042;-60
2023/12/29 01:42:13;;;;;;;;;;;;;;;19.58;33.79;95765.88;10459893;28;1942;-61
2023/12/29 01:47:15;;;;;;;;;;;;;;;19.57;33.76;95771.41;10454306;28;1977;-61
2023/12/29 01:52:16;;;;;;;;;;;;;;;19.55;33.79;95760.38;10436815;28;1994;-61
2023/12/29 01:57:16;;;;;;;;;;;;;;;19.55;33.61;95750.66;10452568;28;2464;-60
2023/12/29 02:02:16;;;;;;;;;;;;;;;19.53;33.94;95752.75;10455030;28;2152;-61
2023/12/29 02:07:16;;;;;;;;;;;;;;;19.53;33.88;95757.22;10463011;28;2005;-60
2023/12/29 02:12:17;;;;;;;;;;;;;;;19.49;34.02;95746.47;10445196;28;4982;-60
2023/12/29 02:17:20;;;;;;;;;;;;;;;19.47;33.74;95741.44;10455384;28;1958;-60
2023/12/29 02:22:21;;;;;;;;;;;;;;;19.45;34.05;95738.28;10445795;28;1943;-61
2023/12/29 02:27:24;;;;;;;;;;;;;;;19.44;33.82;95736.75;10459611;28;1991;-61
2023/12/29 02:32:24;;;;;;;;;;;;;;;19.43;33.93;95740.41;10460927;28;1867;-61
2023/12/29 02:37:24;;;;;;;;;;;;;;;19.42;33.93;95735.41;10454613;28;1911;-61
2023/12/29 02:42:24;;;;;;;;;;;;;;;19.40;33.77;95729.66;10442552;28;2060;-61
2023/12/29 02:47:25;;;;;;;;;;;;;;;19.38;33.85;95716.78;10454715;28;2126;-61
2023/12/29 02:52:25;;;;;;;;;;;;;;;19.37;33.92;95715.19;10459474;28;1956;-60
2023/12/29 02:57:25;;;;;;;;;;;;;;;19.36;33.94;95708.38;10452202;28;1987;-60
2023/12/29 03:02:25;;;;;;;;;;;;;;;19.35;33.92;95704.16;10460710;28;2114;-60
2023/12/29 03:07:26;;;;;;;;;;;;;;;19.33;33.89;95701.00;10458419;28;2184;-60
2023/12/29 03:12:26;;;;;;;;;;;;;;;19.31;34.00;95691.78;10453893;28;5070;-60
2023/12/29 03:17:26;;;;;;;;;;;;;;;19.31;33.87;95687.31;10454159;28;1879;-60
2023/12/29 03:22:26;;;;;;;;;;;;;;;19.30;34.07;95688.38;10437056;28;2013;-60
2023/12/29 03:27:27;;;;;;;;;;;;;;;19.28;33.76;95695.75;10452791;28;1954;-60
2023/12/29 03:32:27;;;;;;;;;;;;;;;19.26;34.06;95692.59;10441233;28;2109;-61
2023/12/29 03:37:27;;;;;;;;;;;;;;;19.25;34.11;95695.47;10453759;28;1984;-60
2023/12/29 03:42:27;;;;;;;;;;;;;;;19.24;33.76;95689.44;10454377;28;1935;-60
2023/12/29 03:47:30;;;;;;;;;;;;;;;19.23;34.06;95689.69;10454700;28;2238;-60
2023/12/29 03:52:30;;;;;;;;;;;;;;;19.21;34.07;95689.97;10454999;28;2016;-60
2023/12/29 03:57:30;;;;;;;;;;;;;;;19.19;33.98;95681.56;10458637;28;2337;-60
2023/12/29 04:02:30;;;;;;;;;;;;;;;19.18;33.87;95677.38;10449111;28;1986;-61
2023/12/29 04:07:31;;;;;;;;;;;;;;;19.17;33.80;95682.88;10458529;28;1970;-60
2023/12/29 04:12:31;;;;;;;;;;;;;;;19.15;33.95;95664.75;10456807;28;4974;-60
2023/12/29 04:17:31;;;;;;;;;;;;;;;19.15;33.74;95664.75;10452833;28;1935;-60
2023/12/29 04:22:32;;;;;;;;;;;;;;;19.13;33.83;95666.06;10453725;28;2037;-60
2023/12/29 04:27:33;;;;;;;;;;;;;;;19.12;33.85;95664.50;10446008;28;2026;-60
2023/12/29 04:32:33;;;;;;;;;;;;;;;19.11;33.83;95668.97;10462074;28;2175;-60
2023/12/29 04:37:33;;;;;;;;;;;;;;;19.10;33.84;95669.25;10467731;28;1911;-61
2023/12/29 04:42:33;;;;;;;;;;;;;;;19.08;33.91;95661.59;10453769;28;2372;-60
2023/12/29 04:47:34;;;;;;;;;;;;;;;19.09;33.77;95663.19;10447545;28;1961;-60
2023/12/29 04:52:34;;;;;;;;;;;;;;;19.06;34.09;95665.56;10455422;28;2095;-59
2023/12/29 04:57:34;;;;;;;;;;;;;;;19.05;34.04;95669.22;10454274;28;1921;-60
2023/12/29 05:02:35;;;;;;;;;;;;;;;19.04;33.89;95657.94;10454736;28;1942;-60
2023/12/29 05:07:35;;;;;;;;;;;;;;;19.03;34.10;95669.50;10461123;28;2077;-60
2023/12/29 05:12:35;;;;;;;;;;;;;;;19.06;34.32;95663.72;10465043;28;2026;-61
2023/12/29 05:17:35;;;;;;;;;;;;;;;19.12;34.44;95654.78;10447469;28;1899;-60
2023/12/29 05:22:36;;;;;;;;;;;;;;;19.19;34.47;95657.91;10448082;28;1972;-60
2023/12/29 05:27:37;;;;;;;;;;;;;;;19.24;34.50;95657.91;10456328;28;2359;-60
2023/12/29 05:32:37;;;;;;;;;;;;;;;19.32;34.34;95660.00;10460705;28;2056;-60
2023/12/29 05:37:38;;;;;;;;;;;;;;;19.38;34.23;95672.09;10460519;28;1972;-60
2023/12/29 05:42:38;;;;;;;;;;;;;;;19.42;34.30;95667.88;10458688;28;2075;-61
2023/12/29 05:47:38;;;;;;;;;;;;;;;19.48;34.18;95674.69;10461049;28;2076;-60
2023/12/29 05:52:38;;;;;;;;;;;;;;;19.53;34.21;95681.78;10459991;28;2034;-60
2023/12/29 05:57:39;;;;;;;;;;;;;;;19.57;34.19;95671.50;10457000;28;1897;-60
2023/12/29 06:02:40;;;;;;;;;;;;;;;19.60;34.17;95676.25;10460942;28;2082;-60
2023/12/29 06:07:40;;;;;;;;;;;;;;;19.64;34.19;95677.28;10448978;28;2084;-60
2023/12/29 06:12:41;;;;;;;;;;;;;;;19.66;34.11;95680.41;10441501;28;5038;-60
2023/12/29 06:17:41;;;;;;;;;;;;;;;19.69;33.92;95671.97;10454702;28;1938;-60
2023/12/29 06:22:42;;;;;;;;;;;;;;;19.72;33.97;95680.09;10454262;28;2010;-60
2023/12/29 06:27:42;;;;;;;;;;;;;;;19.72;34.20;95690.63;10463181;28;1970;-60
2023/12/29 06:32:42;;;;;;;;;;;;;;;19.76;34.19;95696.16;10449050;28;2296;-66
2023/12/29 06:37:43;;;;;;;;;;;;;;;19.78;33.97;95691.41;10448418;28;1940;-60
2023/12/29 06:42:43;;;;;;;;;;;;;;;19.82;33.66;95693.25;10454599;28;2093;-60
2023/12/29 06:47:43;;;;;;;;;;;;;;;19.82;33.88;95692.44;10439239;28;2115;-60
2023/12/29 06:52:43;;;;;;;;;;;;;;;19.84;34.03;95685.06;10461332;28;2253;-60
2023/12/29 06:57:44;;;;;;;;;;;;;;;19.88;33.55;95683.47;10455426;28;1919;-60
2023/12/29 07:02:44;;;;;;;;;;;;;;;19.88;33.76;95692.16;10456788;28;1882;-60
2023/12/29 07:07:44;;;;;;;;;;;;;;;19.91;33.68;95693.44;10454277;28;2031;-60
2023/12/29 07:12:44;;;;;;;;;;;;;;;19.91;33.75;95688.19;10456936;28;5114;-60
2023/12/29 07:17:45;;;;;;;;;;;;;;;19.93;33.67;95691.31;10451529;28;1957;-60
2023/12/29 07:22:45;;;;;;;;;;;;;;;19.96;33.52;95693.44;10457892;28;1895;-60
2023/12/29 07:27:45;;;;;;;;;;;;;;;19.97;33.67;95697.66;10456127;28;1973;-60
2023/12/29 07:32:45;;;;;;;;;;;;;;;19.99;33.42;95691.03;10456240;28;2039;-60
2023/12/29 07:37:46;;;;;;;;;;;;;;;20.00;33.57;95697.09;10460240;28;2027;-60
2023/12/29 07:42:50;;;;;;;;;;;;;;;20.01;32.92;95701.31;10452904;28;2065;-60
2023/12/29 07:47:50;;;;;;;;;;;;;;;20.00;32.83;95707.63;10461300;28;2292;-59
2023/12/29 07:52:50;;;;;;;;;;;;;;;20.00;32.44;95702.34;10456143;28;1985;-57
2023/12/29 07:57:52;;;;;;;;;;;;;;;19.99;32.71;95706.81;10441455;28;1952;-60
2023/12/29 08:02:52;;;;;;;;;;;;;;;20.05;33.04;95704.97;10455972;28;2005;-61
2023/12/29 08:07:52;;;;;;;;;;;;;;;20.06;32.94;95722.31;10458646;28;2041;-62
2023/12/29 08:12:54;;;;;;;;;;;;;;;20.05;33.20;95729.41;10461625;28;5006;-62
2023/12/29 08:17:55;;;;;;;;;;;;;;;20.06;33.46;95728.38;10465196;28;2142;-62
2023/12/29 08:22:56;;;;;;;;;;;;;;;20.10;33.24;95731.25;10463078;28;2225;-62
2023/12/29 08:27:57;;;;;;;;;;;;;;;20.11;33.04;95724.94;10467950;28;1994;-62
2023/12/29 08:32:57;;;;;;;;;;;;;;;20.12;33.47;95729.94;10462668;28;1974;-62
2023/12/29 08:37:57;;;;;;;;;;;;;;;20.20;34.41;95733.84;10461114;28;2027;-62
2023/12/29 08:42:58;;;;;;;;;;;;;;;20.24;34.01;95740.16;10454232;28;1947;-62
2023/12/29 08:47:58;;;;;;;;;;;;;;;20.26;34.76;95738.03;10465480;28;2837;-63
2023/12/29 08:52:58;;;;;;;;;;;;;;;20.29;34.66;95732.25;10459874;28;1936;-61
2023/12/29 08:57:58;;;;;;;;;;;;;;;20.31;33.50;95729.31;10467977;28;1932;-62
2023/12/29 09:02:59;;;;;;;;;;;;;;;20.30;33.58;95730.41;10466135;28;2058;-59
2023/12/29 09:07:59;;;;;;;;;;;;;;;20.30;33.62;95736.44;10468830;28;1997;-58
2023/12/29 09:12:59;;;;;;;;;;;;;;;20.30;33.87;95739.06;10458893;28;5200;-58
2023/12/29 09:17:59;;;;;;;;;;;;;;;20.30;33.69;95749.59;10467068;28;1936;-59
2023/12/29 09:23:00;;;;;;;;;;;;;;;20.33;34.19;95749.06;10479558;28;1920;-59
2023/12/29 09:28:00;;;;;;;;;;;;;;;20.33;35.04;95748.28;10459423;28;2064;-62
2023/12/29 09:33:00;;;;;;;;;;;;;;;20.37;34.85;95744.03;10459121;28;1962;-61
2023/12/29 09:38:01;;;;;;;;;;;;;;;20.38;34.75;95735.84;10459085;28;2063;-61
2023/12/29 09:43:02;;;;;;;;;;;;;;;20.22;34.66;95729.09;10457235;28;2346;-61
2023/12/29 09:48:02;;;;;;;;;;;;;;;20.07;34.84;95729.94;10441453;28;2002;-62
2023/12/29 09:53:03;;;;;;;;;;;;;;;20.10;35.18;95734.66;10459585;28;1848;-61
2023/12/29 09:58:03;;;;;;;;;;;;;;;20.13;36.05;95728.09;10443184;28;1953;-62
2023/12/29 10:03:03;;;;;;;;;;;;;;;20.13;35.72;95725.47;10447018;28;2140;-62
2023/12/29 10:08:04;;;;;;;;;;;;;;;20.12;35.67;95714.13;10463645;28;1971;-61
2023/12/29 10:13:04;;;;;;;;;;;;;;;20.15;34.71;95721.47;10452311;28;5040;-61
2023/12/29 10:18:07;;;;;;;;;;;;;;;20.09;35.85;95704.13;10454635;28;2048;-61
2023/12/29 10:23:14;;;;;;;;;;;;;;;20.10;35.15;95691.78;10455429;28;2042;-61
2023/12/29 10:28:14;;;;;;;;;;;;;;;20.08;35.31;95683.38;10455706;28;2427;-61
2023/12/29 10:33:21;;;;;;;;;;;;;;;20.05;35.58;95671.53;10456455;28;1878;-60
2023/12/29 10:38:21;;;;;;;;;;;;;;;20.06;35.11;95667.06;10454187;28;2096;-61
2023/12/29 10:43:22;;;;;;;;;;;;;;;20.05;35.13;95668.13;10440600;28;1976;-61
2023/12/29 10:48:24;;;;;;;;;;;;;;;20.00;35.51;95666.31;10452644;28;1979;-61
2023/12/29 10:53:24;;;;;;;;;;;;;;;19.99;35.57;95661.31;10446858;28;2049;-61
2023/12/29 10:58:27;;;;;;;;;;;;;;;19.95;35.61;95652.38;10461800;28;2010;-61
2023/12/29 11:03:27;;;;;;;;;;;;;;;19.95;35.81;95647.13;10461878;28;1986;-60
2023/12/29 11:08:27;;;;;;;;;;;;;;;19.95;35.46;95641.84;10441314;28;2045;-61
2023/12/29 11:13:28;;;;;;;;;;;;;;;19.94;35.47;95642.94;10447979;28;5062;-61
2023/12/29 11:18:28;;;;;;;;;;;;;;;19.88;35.57;95644.81;10439963;28;2003;-61
2023/12/29 11:23:28;;;;;;;;;;;;;;;19.89;35.70;95643.72;10453983;28;2008;-61
2023/12/29 11:28:28;;;;;;;;;;;;;;;19.87;35.21;95639.78;10452582;28;2380;-59
2023/12/29 11:33:39;;;;;;;;;;;;;;;19.85;35.17;95626.91;10445078;28;1895;-61
2023/12/29 11:38:40;;;;;;;;;;;;;;;19.81;35.22;95630.38;10463156;28;2024;-62
2023/12/29 11:43:40;;;;;;;;;;;;;;;19.83;35.01;95625.63;10463219;28;2007;-61
2023/12/29 11:48:52;;;;;;;;;;;;;;;19.81;35.16;95619.84;10462309;28;2007;-61
2023/12/29 11:53:53;;;;;;;;;;;;;;;19.79;35.25;95621.97;10462357;28;1966;-61
2023/12/29 11:58:53;;;;;;;;;;;;;;;19.78;35.18;95610.66;10465048;28;2073;-61
2023/12/29 12:03:53;;;;;;;;;;;;;;;19.76;35.27;95622.50;10458683;28;1901;-61
2023/12/29 12:09:08;;;;;;;;;;;;;;;19.75;35.40;95619.09;10463187;28;2057;-61
2023/12/29 12:14:08;;;;;;;;;;;;;;;19.73;35.31;95604.63;10446408;28;5096;-61
2023/12/29 12:19:08;;;;;;;;;;;;;;;19.73;35.48;95612.53;10472808;28;2609;-61
2023/12/29 12:24:09;;;;;;;;;;;;;;;19.69;35.57;95601.78;10433990;28;2014;-61
2023/12/29 12:29:09;;;;;;;;;;;;;;;19.68;35.55;95594.16;10463951;28;1988;-61
2023/12/29 12:34:10;;;;;;;;;;;;;;;19.66;35.68;95601.53;10430852;28;2063;-61
2023/12/29 12:39:10;;;;;;;;;;;;;;;19.65;35.69;95584.16;10455645;28;2054;-61
2023/12/29 12:44:11;;;;;;;;;;;;;;;19.62;35.80;95589.97;10460389;28;2011;-61
2023/12/29 12:49:11;;;;;;;;;;;;;;;19.60;35.62;95597.34;10460607;28;1918;-61
2023/12/29 12:54:12;;;;;;;;;;;;;;;19.60;35.33;95600.00;10462994;28;2199;-61
2023/12/29 12:59:12;;;;;;;;;;;;;;;19.55;35.80;95594.75;10459291;28;2470;-60
2023/12/29 13:04:12;;;;;;;;;;;;;;;19.56;35.61;95604.22;10462634;28;2071;-61
2023/12/29 13:09:13;;;;;;;;;;;;;;;19.54;35.62;95601.06;10458023;28;2045;-61
2023/12/29 13:14:22;;;;;;;;;;;;;;;19.50;35.91;95603.44;10460472;28;2298;-61
2023/12/29 13:19:27;;;;;;;;;;;;;;;19.49;35.35;95607.13;10457440;28;2276;-61
2023/12/29 13:24:27;;;;;;;;;;;;;;;19.46;35.55;95608.44;10458294;28;2116;-61
2023/12/29 13:29:29;;;;;;;;;;;;;;;19.44;35.48;95599.25;10446419;28;1991;-61
2023/12/29 13:34:58;;;;;;;;;;;;;;;19.43;35.35;95603.72;10455600;28;1994;-61
2023/12/29 13:40:10;;;;;;;;;;;;;;;19.41;35.64;95600.56;10443230;28;2103;-60
2023/12/29 13:45:11;;;;;;;;;;;;;;;19.38;35.65;95587.97;10454141;28;2022;-60
2023/12/29 13:50:11;;;;;;;;;;;;;;;19.40;35.58;95595.59;10448662;28;2092;-61
2023/12/29 13:55:11;;;;;;;;;;;;;;;19.36;35.62;95592.72;10458143;28;2257;-61
2023/12/29 14:00:14;;;;;;;;;;;;;;;19.34;35.83;95594.84;10456564;28;2194;-61
2023/12/29 14:05:18;;;;;;;;;;;;;;;19.33;35.77;95588.00;10456791;28;2290;-61
2023/12/29 14:10:18;;;;;;;;;;;;;;;19.33;35.55;95605.59;10442525;28;2099;-61
2023/12/29 14:15:18;;;;;;;;;;;;;;;19.29;35.81;95602.69;10443476;28;5105;-61
2023/12/29 14:20:34;;;;;;;;;;;;;;;19.27;35.71;95612.69;10458916;28;2375;-61
2023/12/29 14:25:38;;;;;;;;;;;;;;;19.27;35.65;95617.16;10461315;28;1988;-60
2023/12/29 14:30:38;;;;;;;;;;;;;;;19.25;35.62;95609.53;10443889;28;2044;-61
2023/12/29 14:35:38;;;;;;;;;;;;;;;19.24;35.69;95610.59;10440146;28;2081;-61
2023/12/29 14:40:39;;;;;;;;;;;;;;;19.22;35.69;95609.31;10460429;28;2009;-61
2023/12/29 14:45:39;;;;;;;;;;;;;;;19.20;35.66;95609.56;10457255;28;2180;-61
2023/12/29 14:50:45;;;;;;;;;;;;;;;19.20;35.50;95611.41;10460079;28;2554;-61
2023/12/29 14:55:45;;;;;;;;;;;;;;;19.18;35.71;95609.06;10455752;28;2018;-61
2023/12/29 15:00:48;;;;;;;;;;;;;;;19.16;35.59;95607.75;10456465;28;2021;-61
2023/12/29 15:05:48;;;;;;;;;;;;;;;19.15;35.67;95606.94;10455945;28;2012;-61
2023/12/29 15:10:48;;;;;;;;;;;;;;;19.14;35.58;95609.84;10451074;28;2354;-61
2023/12/29 15:15:49;;;;;;;;;;;;;;;19.11;35.69;95605.91;10455362;28;4999;-61
2023/12/29 15:20:49;;;;;;;;;;;;;;;19.12;35.51;95604.06;10456545;28;2016;-61
2023/12/29 15:25:50;;;;;;;;;;;;;;;19.09;35.75;95608.03;10457307;28;2065;-62
2023/12/29 15:30:50;;;;;;;;;;;;;;;19.08;35.54;95603.03;10435377;28;2062;-61
2023/12/29 15:35:50;;;;;;;;;;;;;;;19.06;35.75;95600.66;10440934;28;2032;-61
2023/12/29 15:40:51;;;;;;;;;;;;;;;19.05;35.94;95608.81;10457706;28;1859;-61
2023/12/29 15:45:51;;;;;;;;;;;;;;;19.05;35.56;95612.22;10447861;28;1919;-61
2023/12/29 15:50:51;;;;;;;;;;;;;;;19.05;35.63;95612.22;10459235;28;2241;-61
2023/12/29 15:55:51;;;;;;;;;;;;;;;19.02;35.64;95602.25;10455647;28;2056;-61
2023/12/29 16:00:52;;;;;;;;;;;;;;;19.01;35.85;95605.94;10456702;28;2123;-61
2023/12/29 16:05:52;;;;;;;;;;;;;;;19.00;35.81;95601.72;10451465;28;2285;-61
2023/12/29 16:10:52;;;;;;;;;;;;;;;19.00;35.68;95600.97;10452426;28;2136;-61
2023/12/29 16:15:52;;;;;;;;;;;;;;;18.98;35.78;95608.31;10455880;28;5190;-60
2023/12/29 16:20:53;;;;;;;;;;;;;;;18.97;35.75;95607.53;10454361;28;2237;-60
2023/12/29 16:25:53;;;;;;;;;;;;;;;18.96;35.87;95608.56;10462905;28;1963;-61
2023/12/29 16:30:53;;;;;;;;;;;;;;;18.95;35.80;95608.84;10462369;28;1903;-61
2023/12/29 16:35:54;;;;;;;;;;;;;;;18.94;35.76;95605.41;10464072;28;2021;-61
2023/12/29 16:40:54;;;;;;;;;;;;;;;18.93;35.76;95600.44;10462762;28;2048;-61
2023/12/29 16:45:54;;;;;;;;;;;;;;;18.92;35.75;95596.25;10464406;28;2412;-61
2023/12/29 16:50:54;;;;;;;;;;;;;;;18.90;35.78;95587.84;10465624;28;1871;-61
2023/12/29 16:55:55;;;;;;;;;;;;;;;18.90;35.76;95596.50;10463587;28;1998;-60
2023/12/29 17:00:55;;;;;;;;;;;;;;;18.89;35.62;95579.19;10460914;28;2127;-61
2023/12/29 17:05:56;;;;;;;;;;;;;;;18.87;35.79;95585.75;10460135;28;1968;-61
2023/12/29 17:10:56;;;;;;;;;;;;;;;18.87;35.71;95575.25;10462092;28;2146;-60
2023/12/29 17:15:56;;;;;;;;;;;;;;;18.86;35.66;95577.06;10455297;28;4972;-60
2023/12/29 17:20:56;;;;;;;;;;;;;;;18.84;35.81;95563.44;10457372;28;2045;-61
2023/12/29 17:25:57;;;;;;;;;;;;;;;18.83;35.84;95564.50;10451521;28;2088;-61
2023/12/29 17:30:57;;;;;;;;;;;;;;;18.83;35.81;95561.88;10453479;28;2039;-61
2023/12/29 17:35:57;;;;;;;;;;;;;;;18.81;35.80;95563.97;10440714;28;1973;-61
2023/12/29 17:40:57;;;;;;;;;;;;;;;18.81;35.70;95561.34;10465649;28;1928;-60
2023/12/29 17:45:58;;;;;;;;;;;;;;;18.80;35.89;95562.38;10458708;28;1969;-61
2023/12/29 17:50:58;;;;;;;;;;;;;;;18.79;35.75;95558.19;10451594;28;2291;-61
2023/12/29 17:56:02;;;;;;;;;;;;;;;18.78;35.76;95556.63;10456099;28;2065;-61
2023/12/29 18:01:02;;;;;;;;;;;;;;;18.78;35.60;95569.75;10458147;28;2370;-61
2023/12/29 18:06:03;;;;;;;;;;;;;;;18.77;35.62;95556.88;10461698;28;2081;-61
2023/12/29 18:11:04;;;;;;;;;;;;;;;18.76;35.89;95569.22;10458758;28;2035;-61
2023/12/29 18:16:09;;;;;;;;;;;;;;;18.76;35.95;95560.56;10447796;28;5099;-60
2023/12/29 18:21:09;;;;;;;;;;;;;;;18.73;35.81;95554.00;10440708;28;2034;-61
2023/12/29 18:26:09;;;;;;;;;;;;;;;18.73;35.71;95561.91;10451920;28;1979;-61
2023/12/29 18:31:11;;;;;;;;;;;;;;;18.73;35.77;95548.75;10446253;28;2057;-59
2023/12/29 18:36:11;;;;;;;;;;;;;;;18.68;35.95;95549.56;10463701;28;1988;-61
2023/12/29 18:41:11;;;;;;;;;;;;;;;18.69;35.74;95551.13;10457677;28;1898;-61
2023/12/29 18:46:12;;;;;;;;;;;;;;;18.68;35.96;95548.75;10460952;28;1930;-61
2023/12/29 18:51:13;;;;;;;;;;;;;;;18.68;35.86;95543.50;10451705;28;2161;-61
2023/12/29 18:56:13;;;;;;;;;;;;;;;18.67;35.55;95545.34;10446138;28;2401;-61
2023/12/29 19:01:13;;;;;;;;;;;;;;;18.65;35.76;95544.81;10459245;28;1997;-61
2023/12/29 19:06:21;;;;;;;;;;;;;;;18.65;35.55;95547.44;10460811;28;1942;-61
2023/12/29 19:11:22;;;;;;;;;;;;;;;18.63;35.82;95546.94;10462582;28;1867;-61
2023/12/29 19:16:22;;;;;;;;;;;;;;;18.63;35.75;95548.75;10449040;28;5006;-60
2023/12/29 19:21:23;;;;;;;;;;;;;;;18.62;35.82;95555.06;10454466;28;2035;-61
2023/12/29 19:26:23;;;;;;;;;;;;;;;18.62;35.76;95547.19;10450978;28;2116;-61
2023/12/29 19:31:25;;;;;;;;;;;;;;;18.60;35.80;95546.69;10455997;28;2362;-60
2023/12/29 19:36:25;;;;;;;;;;;;;;;18.59;35.69;95548.50;10453986;28;2228;-60
2023/12/29 19:41:32;;;;;;;;;;;;;;;18.59;35.78;95539.84;10447758;28;2144;-61
2023/12/29 19:46:32;;;;;;;;;;;;;;;18.57;35.77;95547.19;10454096;28;1934;-61
2023/12/29 19:51:32;;;;;;;;;;;;;;;18.56;35.50;95543.00;10443693;28;1882;-61
2023/12/29 19:56:32;;;;;;;;;;;;;;;18.56;35.53;95540.38;10459100;28;2377;-61
2023/12/29 20:01:34;;;;;;;;;;;;;;;18.55;35.43;95549.31;10463971;28;1948;-61
2023/12/29 20:06:36;;;;;;;;;;;;;;;18.55;35.61;95551.94;10467136;28;2108;-61
2023/12/29 20:11:39;;;;;;;;;;;;;;;18.54;35.62;95545.13;10464836;28;1972;-61
2023/12/29 20:16:39;;;;;;;;;;;;;;;18.52;35.66;95539.34;10460966;28;1894;-61
2023/12/29 20:21:40;;;;;;;;;;;;;;;18.51;35.58;95543.00;10463703;28;1904;-60
2023/12/29 20:26:40;;;;;;;;;;;;;;;18.51;35.39;95548.25;10465315;28;2094;-61
2023/12/29 20:31:42;;;;;;;;;;;;;;;18.49;35.68;95545.91;10461560;28;2063;-60
2023/12/29 20:36:42;;;;;;;;;;;;;;;18.48;35.57;95554.84;10460063;28;1923;-60
2023/12/29 20:41:43;;;;;;;;;;;;;;;18.46;35.62;95550.91;10456595;28;2023;-60
2023/12/29 20:46:43;;;;;;;;;;;;;;;18.46;35.62;95554.31;10463301;28;2002;-60
2023/12/29 20:51:44;;;;;;;;;;;;;;;18.47;35.43;95552.47;10461411;28;2446;-60
2023/12/29 20:56:44;;;;;;;;;;;;;;;18.44;35.66;95553.78;10463830;28;1904;-60
2023/12/29 21:01:44;;;;;;;;;;;;;;;18.44;35.52;95548.53;10463528;28;1989;-60
2023/12/29 21:06:47;;;;;;;;;;;;;;;18.43;35.65;95551.41;10461254;28;1960;-60
2023/12/29 21:11:47;;;;;;;;;;;;;;;18.43;35.48;95551.41;10463630;28;1890;-60
2023/12/29 21:16:47;;;;;;;;;;;;;;;18.42;35.57;95563.72;10449502;28;1910;-58
2023/12/29 21:21:48;;;;;;;;;;;;;;;18.41;35.59;95558.75;10464192;28;1962;-60
2023/12/29 21:26:48;;;;;;;;;;;;;;;18.40;35.58;95565.06;10456134;28;1930;-60
2023/12/29 21:31:51;;;;;;;;;;;;;;;18.38;35.53;95569.78;10459516;28;1858;-60
2023/12/29 21:36:52;;;;;;;;;;;;;;;18.38;35.57;95565.28;10460054;28;2050;-60
2023/12/29 21:41:59;;;;;;;;;;;;;;;18.38;35.43;95564.53;10461326;28;1999;-60
2023/12/29 21:46:59;;;;;;;;;;;;;;;18.35;35.53;95563.22;10457993;28;2310;-60
2023/12/29 21:51:59;;;;;;;;;;;;;;;18.36;35.48;95571.88;10448709;28;1899;-61
2023/12/29 21:57:00;;;;;;;;;;;;;;;18.35;35.50;95575.53;10461982;28;1945;-60
2023/12/29 22:02:00;;;;;;;;;;;;;;;18.35;35.60;95586.03;10451416;28;2220;-60
2023/12/29 22:07:00;;;;;;;;;;;;;;;18.34;35.57;95584.47;10457987;28;2046;-60
2023/12/29 22:12:00;;;;;;;;;;;;;;;18.31;35.65;95579.75;10459420;28;5113;-61
2023/12/29 22:17:01;;;;;;;;;;;;;;;18.31;35.83;95577.13;10458149;28;2033;-60
2023/12/29 22:22:01;;;;;;;;;;;;;;;18.31;35.39;95585.00;10457141;28;2055;-60
2023/12/29 22:27:01;;;;;;;;;;;;;;;18.30;35.74;95572.94;10456372;28;2099;-60
2023/12/29 22:32:01;;;;;;;;;;;;;;;18.28;35.63;95575.03;10435720;28;2072;-58
2023/12/29 22:37:02;;;;;;;;;;;;;;;18.27;35.57;95579.50;10456408;28;1875;-60
2023/12/29 22:42:03;;;;;;;;;;;;;;;18.26;35.78;95572.66;10453595;28;2267;-60
2023/12/29 22:47:03;;;;;;;;;;;;;;;18.25;35.62;95565.84;10452784;28;2296;-60
2023/12/29 22:52:04;;;;;;;;;;;;;;;18.26;35.65;95575.28;10459967;28;1904;-60
2023/12/29 22:57:04;;;;;;;;;;;;;;;18.24;35.67;95573.97;10456617;28;2112;-60
2023/12/29 23:02:07;;;;;;;;;;;;;;;18.24;35.48;95576.59;10456125;28;1951;-60
2023/12/29 23:07:07;;;;;;;;;;;;;;;18.23;35.63;95561.91;10444600;28;1985;-61
2023/12/29 23:12:10;;;;;;;;;;;;;;;18.22;35.77;95565.56;10451397;28;4959;-61
2023/12/29 23:17:10;;;;;;;;;;;;;;;18.21;35.62;95562.19;10454769;28;2087;-60
2023/12/29 23:22:13;;;;;;;;;;;;;;;18.19;35.76;95569.53;10455354;28;1995;-60
2023/12/29 23:27:13;;;;;;;;;;;;;;;18.19;35.78;95572.16;10455259;28;1963;-60
2023/12/29 23:32:19;;;;;;;;;;;;;;;18.19;35.71;95572.16;10459994;28;2126;-60
2023/12/29 23:37:19;;;;;;;;;;;;;;;18.17;35.79;95563.75;10473782;28;2379;-60
2023/12/29 23:42:20;;;;;;;;;;;;;;;18.17;35.70;95562.97;10471246;28;2064;-60
2023/12/29 23:47:21;;;;;;;;;;;;;;;18.17;35.69;95570.81;10469324;28;1902;-60
2023/12/29 23:52:21;;;;;;;;;;;;;;;18.15;35.52;95560.59;10468371;28;2010;-60
2023/12/29 23:57:21;;;;;;;;;;;;;;;18.15;35.59;95549.31;10465927;28;2059;-60
